Time;durP1;ratioP1;P1;durP2;ratioP2;P2;SDS_P1;SDS_P2;PMS_P1;PMS_P2;Temp;Humidity;BMP_temperature;BMP_pressure;BME280_temperature;BME280_humidity;BME280_pressure;Samples;Min_cycle;Max_cycle;Signal;HPM_P1;HPM_P2
2024/01/03 00:01:13;;;;;;;;;;;;;;;12.46;58.76;96972.72;67568;1282;1016473;-68
2024/01/03 00:04:16;;;;;;;;;;;;;;;12.45;58.87;96956.51;67558;1282;1016382;-68
2024/01/03 00:07:19;;;;;;;;;;;;;;;12.45;58.94;96951.08;67587;1282;1016504;-73
2024/01/03 00:10:21;;;;;;;;;;;;;;;12.41;58.91;96947.98;67522;1282;1016413;-71
2024/01/03 00:13:24;;;;;;;;;;;;;;;12.52;58.73;96943.09;67560;1282;1016301;-70
2024/01/03 00:16:27;;;;;;;;;;;;;;;12.51;58.89;96937.89;67585;1282;1016475;-72
2024/01/03 00:19:29;;;;;;;;;;;;;;;12.61;58.58;96935.46;67528;1282;1016414;-71
2024/01/03 00:22:32;;;;;;;;;;;;;;;12.62;58.36;96933.33;67593;1282;1016137;-68
2024/01/03 00:25:35;;;;;;;;;;;;;;;12.67;58.51;96929.48;67619;1282;1016517;-73
2024/01/03 00:28:37;;;;;;;;;;;;;;;12.54;58.86;96925.28;67520;1282;1016447;-69
2024/01/03 00:31:41;;;;;;;;;;;;;;;12.56;58.70;96922.70;67578;1282;1016473;-71
2024/01/03 00:34:44;;;;;;;;;;;;;;;12.62;58.66;96915.45;67522;1282;1015690;-73
2024/01/03 00:37:46;;;;;;;;;;;;;;;12.71;58.67;96907.17;67592;1282;1016453;-72
2024/01/03 00:40:49;;;;;;;;;;;;;;;12.72;58.79;96907.38;67562;1282;1016297;-73
2024/01/03 00:43:52;;;;;;;;;;;;;;;12.76;58.66;96903.67;67531;1282;1016474;-67
2024/01/03 00:46:54;;;;;;;;;;;;;;;12.74;58.49;96897.58;67577;1282;1016395;-71
2024/01/03 00:49:57;;;;;;;;;;;;;;;12.70;58.85;96898.44;67594;1282;1016345;-68
2024/01/03 00:53:00;;;;;;;;;;;;;;;12.63;59.15;96895.14;67545;1282;1016526;-70
2024/01/03 00:56:02;;;;;;;;;;;;;;;12.46;59.64;96893.43;67620;1282;1016488;-73
2024/01/03 00:59:05;;;;;;;;;;;;;;;12.46;59.99;96894.36;67594;1282;1017164;-73
2024/01/03 01:02:08;;;;;;;;;;;;;;;12.58;59.55;96885.80;67543;1282;1016002;-73
2024/01/03 01:05:11;;;;;;;;;;;;;;;12.52;59.55;96880.47;67581;1282;1016408;-68
2024/01/03 01:08:13;;;;;;;;;;;;;;;12.46;59.67;96877.33;67577;1282;1016404;-73
2024/01/03 01:11:16;;;;;;;;;;;;;;;12.60;59.28;96873.49;67546;1282;1016416;-72
2024/01/03 01:17:42;;;;;;;;;;;;;;;12.53;59.87;96865.29;67557;1282;1016957;-68
2024/01/03 01:20:45;;;;;;;;;;;;;;;12.47;59.94;96858.34;67596;1282;1016555;-68
2024/01/03 01:23:48;;;;;;;;;;;;;;;12.38;60.27;96849.45;67584;1282;1018437;-71
2024/01/03 01:26:50;;;;;;;;;;;;;;;12.37;60.53;96845.33;67574;1282;1016411;-69
2024/01/03 01:29:53;;;;;;;;;;;;;;;12.44;60.49;96836.86;67580;1282;1016560;-69
2024/01/03 01:32:56;;;;;;;;;;;;;;;12.43;60.71;96829.91;67596;1282;1016299;-73
2024/01/03 01:35:58;;;;;;;;;;;;;;;12.46;60.68;96827.87;67533;1282;1016463;-72
2024/01/03 01:39:03;;;;;;;;;;;;;;;12.72;59.81;96822.30;67616;1282;1018135;-69
2024/01/03 01:42:06;;;;;;;;;;;;;;;12.91;59.02;96819.61;67596;1282;1016473;-72
2024/01/03 01:45:08;;;;;;;;;;;;;;;12.80;59.25;96815.88;67577;1282;1018713;-68
2024/01/03 01:48:11;;;;;;;;;;;;;;;12.73;59.60;96811.56;67565;1282;1016480;-72
2024/01/03 01:51:14;;;;;;;;;;;;;;;12.76;59.19;96806.32;67593;1282;1016404;-67
2024/01/03 01:54:17;;;;;;;;;;;;;;;12.68;59.47;96798.84;67590;1282;1016234;-73
2024/01/03 01:57:20;;;;;;;;;;;;;;;12.65;59.71;96793.60;67588;1282;1016362;-68
2024/01/03 02:25:49;;;;;;;;;;;;;;;12.61;60.92;96746.64;67537;1282;1016278;-73
2024/01/03 02:28:52;;;;;;;;;;;;;;;12.68;60.62;96742.10;67553;1282;1017948;-71
2024/01/03 02:31:55;;;;;;;;;;;;;;;12.68;60.75;96738.41;67554;1282;1016523;-70
2024/01/03 02:34:58;;;;;;;;;;;;;;;12.67;60.81;96735.36;67585;1282;1016069;-68
2024/01/03 02:38:05;;;;;;;;;;;;;;;12.62;60.81;96738.83;67558;1282;1016397;-74
2024/01/03 02:41:08;;;;;;;;;;;;;;;12.66;60.71;96733.13;67585;1282;1016464;-74
2024/01/03 02:44:10;;;;;;;;;;;;;;;12.65;60.87;96732.61;67576;1282;1018177;-74
2024/01/03 02:47:13;;;;;;;;;;;;;;;12.68;60.66;96732.41;67541;1282;1016227;-67
2024/01/03 02:50:15;;;;;;;;;;;;;;;12.55;61.09;96730.60;67594;1282;1018074;-72
2024/01/03 02:53:18;;;;;;;;;;;;;;;12.56;61.36;96728.42;67577;1282;1016427;-72
2024/01/03 02:56:21;;;;;;;;;;;;;;;12.64;61.50;96720.73;67575;1282;1018964;-74
2024/01/03 02:59:24;;;;;;;;;;;;;;;12.83;60.92;96715.52;67565;1282;1018191;-70
2024/01/03 03:02:27;;;;;;;;;;;;;;;12.92;60.26;96711.58;67597;1282;1016978;-73
2024/01/03 03:05:29;;;;;;;;;;;;;;;12.89;60.30;96708.40;67565;1282;1016475;-74
2024/01/03 03:08:32;;;;;;;;;;;;;;;12.80;60.37;96703.98;67584;1282;1016519;-69
2024/01/03 03:11:34;;;;;;;;;;;;;;;12.89;60.33;96699.23;67582;1282;1016509;-74
2024/01/03 03:14:37;;;;;;;;;;;;;;;12.93;60.36;96695.49;67571;1282;1016445;-71
2024/01/03 03:17:40;;;;;;;;;;;;;;;12.89;60.43;96693.68;67546;1282;1016346;-74
2024/01/03 03:20:44;;;;;;;;;;;;;;;13.00;60.41;96686.36;67581;1282;1016292;-74
2024/01/03 03:23:47;;;;;;;;;;;;;;;12.96;60.67;96686.73;67553;1282;1016509;-74
2024/01/03 03:26:50;;;;;;;;;;;;;;;12.88;60.86;96682.85;67560;1282;1016198;-73
2024/01/03 03:29:53;;;;;;;;;;;;;;;12.84;60.97;96685.16;67576;1282;1016294;-70
2024/01/03 03:32:56;;;;;;;;;;;;;;;12.88;60.80;96675.63;67582;1282;1015923;-74
2024/01/03 03:35:58;;;;;;;;;;;;;;;12.90;60.90;96676.91;67592;1282;1016105;-72
2024/01/03 03:39:01;;;;;;;;;;;;;;;12.85;61.34;96668.80;67618;1282;1016344;-73
2024/01/03 03:42:03;;;;;;;;;;;;;;;12.81;61.57;96668.66;67545;1282;1016403;-69
2024/01/03 03:45:06;;;;;;;;;;;;;;;12.75;62.03;96662.77;67595;1282;1016454;-72
2024/01/03 03:48:09;;;;;;;;;;;;;;;12.81;61.96;96661.35;67626;1282;1018901;-72
2024/01/03 03:51:12;;;;;;;;;;;;;;;12.94;61.75;96658.86;67529;1282;1016481;-66
2024/01/03 03:54:14;;;;;;;;;;;;;;;12.87;62.00;96652.96;67591;1282;1016439;-66
2024/01/03 03:57:17;;;;;;;;;;;;;;;12.90;62.04;96651.75;67537;1282;1016443;-71
2024/01/03 04:00:20;;;;;;;;;;;;;;;12.99;61.84;96650.84;67552;1283;1016585;-69
2024/01/03 04:03:23;;;;;;;;;;;;;;;12.97;61.87;96648.38;67603;1282;1016437;-73
2024/01/03 04:06:25;;;;;;;;;;;;;;;12.94;62.28;96645.23;67583;1282;1016491;-72
2024/01/03 04:09:28;;;;;;;;;;;;;;;13.00;62.20;96643.30;67532;1282;1016325;-67
2024/01/03 04:12:31;;;;;;;;;;;;;;;13.13;61.83;96639.05;67586;1282;1016493;-71
2024/01/03 04:15:34;;;;;;;;;;;;;;;13.25;61.29;96641.14;67548;1282;1016285;-71
2024/01/03 04:18:36;;;;;;;;;;;;;;;13.17;61.89;96638.42;67565;1282;1016488;-71
2024/01/03 04:21:39;;;;;;;;;;;;;;;13.20;61.98;96640.87;67567;1282;1016392;-69
2024/01/03 04:24:42;;;;;;;;;;;;;;;13.15;62.18;96636.65;67535;1282;1016410;-72
2024/01/03 04:27:44;;;;;;;;;;;;;;;13.15;62.40;96635.27;67550;1282;1016305;-70
2024/01/03 04:30:47;;;;;;;;;;;;;;;13.12;62.60;96635.59;67589;1282;1016363;-66
2024/01/03 04:33:50;;;;;;;;;;;;;;;13.00;63.44;96637.06;67593;1282;1017029;-69
2024/01/03 04:36:53;;;;;;;;;;;;;;;12.98;63.68;96633.73;67546;1282;1016463;-67
2024/01/03 04:39:55;;;;;;;;;;;;;;;12.98;64.03;96635.81;67577;1282;1016543;-71
2024/01/03 04:42:58;;;;;;;;;;;;;;;13.02;63.99;96632.95;67595;1282;1016582;-68
2024/01/03 04:46:01;;;;;;;;;;;;;;;13.09;63.80;96629.61;67534;1282;1016681;-71
2024/01/03 04:49:04;;;;;;;;;;;;;;;13.13;63.86;96634.94;67577;1282;1016518;-68
2024/01/03 04:52:07;;;;;;;;;;;;;;;13.06;64.35;96632.89;67548;1282;1018223;-68
2024/01/03 04:55:09;;;;;;;;;;;;;;;13.09;64.30;96628.52;67586;1282;1016477;-71
2024/01/03 04:58:12;;;;;;;;;;;;;;;13.05;64.69;96628.98;67578;1282;1018166;-69
2024/01/03 05:01:15;;;;;;;;;;;;;;;13.09;64.63;96633.59;67537;1282;1016593;-67
2024/01/03 05:04:17;;;;;;;;;;;;;;;13.27;64.00;96634.33;67584;1282;1016410;-69
2024/01/03 05:07:20;;;;;;;;;;;;;;;13.30;63.92;96630.31;67572;1282;1016191;-70
2024/01/03 05:10:23;;;;;;;;;;;;;;;13.16;65.18;96628.48;67553;1282;1016680;-71
2024/01/03 05:13:29;;;;;;;;;;;;;;;13.07;65.81;96625.63;67563;1282;1016544;-71
2024/01/03 05:16:31;;;;;;;;;;;;;;;13.10;65.79;96627.36;67550;1282;1016207;-70
2024/01/03 05:19:34;;;;;;;;;;;;;;;13.03;66.31;96621.98;67577;1282;1016478;-72
2024/01/03 05:22:37;;;;;;;;;;;;;;;13.14;65.75;96618.16;67539;1282;1016874;-71
2024/01/03 05:25:39;;;;;;;;;;;;;;;13.03;66.37;96617.05;67590;1282;1016494;-72
2024/01/03 05:28:42;;;;;;;;;;;;;;;13.09;66.42;96621.15;67583;1282;1016387;-72
2024/01/03 05:31:45;;;;;;;;;;;;;;;13.12;66.19;96620.66;67520;1282;1016171;-66
2024/01/03 05:34:48;;;;;;;;;;;;;;;13.18;66.17;96621.28;67567;1282;1016241;-70
2024/01/03 05:37:50;;;;;;;;;;;;;;;13.28;66.03;96613.23;67542;1282;1016524;-71
2024/01/03 05:40:53;;;;;;;;;;;;;;;13.30;65.85;96609.12;67518;1282;1016423;-72
2024/01/03 05:43:56;;;;;;;;;;;;;;;13.31;65.98;96607.58;67599;1282;1016504;-70
2024/01/03 05:46:58;;;;;;;;;;;;;;;13.25;66.36;96607.41;67576;1282;1016140;-71
2024/01/03 05:50:01;;;;;;;;;;;;;;;13.27;66.35;96606.98;67524;1282;1016446;-70
2024/01/03 05:53:04;;;;;;;;;;;;;;;13.28;66.54;96609.83;67585;1282;1016242;-72
2024/01/03 05:56:06;;;;;;;;;;;;;;;13.26;66.72;96616.98;67584;1282;1016331;-71
2024/01/03 05:59:09;;;;;;;;;;;;;;;13.29;66.72;96611.23;67531;1282;1016407;-71
2024/01/03 06:02:12;;;;;;;;;;;;;;;13.41;66.13;96612.54;67586;1282;1016921;-73
2024/01/03 06:05:16;;;;;;;;;;;;;;;13.56;65.79;96613.97;67592;1282;1016252;-72
2024/01/03 06:08:19;;;;;;;;;;;;;;;13.75;65.04;96611.15;67537;1282;1016450;-65
2024/01/03 06:11:22;;;;;;;;;;;;;;;13.84;64.65;96614.10;67561;1282;1018952;-70
2024/01/03 06:14:24;;;;;;;;;;;;;;;13.86;64.93;96612.83;67572;1282;1016424;-72
2024/01/03 06:17:27;;;;;;;;;;;;;;;13.71;65.87;96615.46;67554;1282;1016311;-72
2024/01/03 06:20:30;;;;;;;;;;;;;;;13.77;65.58;96615.52;67584;1282;1016348;-72
2024/01/03 06:23:35;;;;;;;;;;;;;;;13.72;66.43;96616.55;67569;1282;1016199;-71
2024/01/03 06:26:38;;;;;;;;;;;;;;;13.80;66.24;96617.14;67558;1282;1016304;-72
2024/01/03 06:29:42;;;;;;;;;;;;;;;13.66;67.24;96614.23;67591;1282;1016423;-70
2024/01/03 06:32:44;;;;;;;;;;;;;;;13.76;66.76;96621.95;67571;1282;1015912;-65
2024/01/03 06:35:47;;;;;;;;;;;;;;;13.86;66.53;96622.30;67535;1282;1016288;-70
2024/01/03 06:38:50;;;;;;;;;;;;;;;14.08;65.53;96627.31;67586;1282;1016483;-71
2024/01/03 06:41:53;;;;;;;;;;;;;;;14.12;65.45;96623.87;67532;1282;1016497;-72
2024/01/03 06:44:55;;;;;;;;;;;;;;;14.07;65.58;96627.71;67542;1282;1016334;-67
2024/01/03 06:47:58;;;;;;;;;;;;;;;14.23;64.87;96626.46;67581;1282;1016509;-70
2024/01/03 06:51:02;;;;;;;;;;;;;;;14.33;64.50;96623.63;67570;1283;1016440;-70
2024/01/03 06:54:05;;;;;;;;;;;;;;;14.30;65.01;96622.88;67554;1283;1016263;-71
2024/01/03 06:57:07;;;;;;;;;;;;;;;14.41;64.59;96626.08;67584;1282;1016676;-71
2024/01/03 07:00:10;;;;;;;;;;;;;;;14.43;64.57;96627.81;67526;1282;1016324;-70
2024/01/03 07:03:13;;;;;;;;;;;;;;;14.39;64.94;96627.04;67571;1282;1016084;-71
2024/01/03 07:06:15;;;;;;;;;;;;;;;14.23;66.01;96625.95;67568;1282;1016408;-70
2024/01/03 07:09:18;;;;;;;;;;;;;;;14.19;66.38;96628.98;67548;1282;1016221;-69
2024/01/03 07:12:21;;;;;;;;;;;;;;;14.30;66.04;96626.02;67571;1282;1016462;-72
2024/01/03 07:15:23;;;;;;;;;;;;;;;14.32;65.81;96623.23;67527;1282;1016438;-69
2024/01/03 07:18:26;;;;;;;;;;;;;;;14.24;66.63;96632.56;67512;1282;1016513;-67
2024/01/03 07:21:29;;;;;;;;;;;;;;;14.23;67.03;96637.70;67553;1282;1016320;-70
2024/01/03 07:24:32;;;;;;;;;;;;;;;14.37;66.39;96632.68;67559;1282;1016408;-70
2024/01/03 07:27:34;;;;;;;;;;;;;;;14.61;65.13;96634.61;67535;1282;1016468;-71
2024/01/03 07:30:37;;;;;;;;;;;;;;;14.65;64.89;96638.94;67567;1282;1016309;-70
2024/01/03 07:33:40;;;;;;;;;;;;;;;14.66;65.01;96636.00;67529;1282;1016361;-62
2024/01/03 07:36:43;;;;;;;;;;;;;;;14.81;64.68;96643.14;67557;1282;1016280;-71
2024/01/03 07:39:45;;;;;;;;;;;;;;;14.89;64.79;96641.48;67577;1282;1016257;-68
2024/01/03 07:42:48;;;;;;;;;;;;;;;15.02;64.57;96650.87;67585;1282;1019734;-68
2024/01/03 07:45:51;;;;;;;;;;;;;;;15.17;63.75;96638.50;67566;1282;1016804;-72
2024/01/03 07:48:53;;;;;;;;;;;;;;;15.21;63.58;96646.83;67573;1282;1016096;-72
2024/01/03 07:51:56;;;;;;;;;;;;;;;15.24;63.49;96653.70;67578;1282;1016413;-69
2024/01/03 07:54:59;;;;;;;;;;;;;;;15.20;63.92;96654.17;67508;1282;1016292;-71
2024/01/03 07:58:01;;;;;;;;;;;;;;;15.41;63.22;96653.42;67571;1282;1016008;-72
2024/01/03 08:01:04;;;;;;;;;;;;;;;15.23;64.26;96654.94;67548;1282;1016466;-71
2024/01/03 08:04:07;;;;;;;;;;;;;;;15.17;64.73;96660.77;67521;1282;1016495;-64
2024/01/03 08:07:10;;;;;;;;;;;;;;;15.26;64.60;96657.02;67566;1282;1016439;-71
2024/01/03 08:10:12;;;;;;;;;;;;;;;15.22;64.97;96658.90;67587;1282;1016008;-71
2024/01/03 08:13:15;;;;;;;;;;;;;;;15.29;64.86;96659.88;67517;1282;1016482;-70
2024/01/03 08:16:18;;;;;;;;;;;;;;;15.23;65.23;96671.27;67565;1282;1016511;-66
2024/01/03 08:19:20;;;;;;;;;;;;;;;15.27;65.12;96661.48;67576;1282;1016292;-72
2024/01/03 08:22:23;;;;;;;;;;;;;;;15.24;65.35;96660.64;67530;1282;1016408;-71
2024/01/03 08:25:26;;;;;;;;;;;;;;;15.31;65.07;96676.77;67591;1282;1016497;-71
2024/01/03 08:28:29;;;;;;;;;;;;;;;15.41;64.42;96673.26;67574;1282;1016471;-69
2024/01/03 08:31:32;;;;;;;;;;;;;;;15.51;64.15;96664.73;67500;1282;1016462;-64
2024/01/03 08:34:35;;;;;;;;;;;;;;;15.52;64.10;96675.69;67522;1282;1019022;-71
2024/01/03 08:37:38;;;;;;;;;;;;;;;15.70;63.06;96682.44;67481;1282;1016498;-68
2024/01/03 08:40:40;;;;;;;;;;;;;;;15.72;62.71;96689.43;67569;1282;1016316;-71
2024/01/03 08:43:43;;;;;;;;;;;;;;;15.78;62.45;96686.98;67557;1282;1016423;-71
2024/01/03 08:46:46;;;;;;;;;;;;;;;15.78;62.47;96692.30;67505;1282;1016505;-68
2024/01/03 08:49:48;;;;;;;;;;;;;;;15.77;62.22;96685.86;67571;1282;1016423;-71
2024/01/03 08:52:51;;;;;;;;;;;;;;;15.73;62.29;96695.27;67532;1282;1015718;-69
2024/01/03 08:55:54;;;;;;;;;;;;;;;15.71;62.30;96697.86;67570;1282;1016070;-69
2024/01/03 08:58:57;;;;;;;;;;;;;;;15.65;62.64;96692.92;67544;1282;1016426;-70
2024/01/03 09:01:59;;;;;;;;;;;;;;;15.56;63.09;96702.86;67537;1282;1016441;-72
2024/01/03 09:05:02;;;;;;;;;;;;;;;15.50;63.29;96709.23;67528;1282;1016126;-71
2024/01/03 09:08:05;;;;;;;;;;;;;;;15.49;63.37;96715.02;67537;1282;1016602;-71
2024/01/03 09:11:07;;;;;;;;;;;;;;;15.56;63.33;96719.04;67546;1282;1016327;-69
2024/01/03 09:14:10;;;;;;;;;;;;;;;15.50;63.71;96725.19;67524;1282;1016426;-71
2024/01/03 09:17:13;;;;;;;;;;;;;;;15.37;64.53;96722.45;67539;1282;1016190;-71
2024/01/03 09:20:15;;;;;;;;;;;;;;;15.42;64.53;96720.52;67535;1282;1016408;-71
2024/01/03 09:23:19;;;;;;;;;;;;;;;15.50;64.25;96719.95;65008;1282;6324948;-69
2024/01/03 09:26:22;;;;;;;;;;;;;;;15.55;64.09;96714.13;67555;1282;1016315;-71
2024/01/03 09:29:25;;;;;;;;;;;;;;;15.59;64.32;96714.13;67583;1282;1018747;-72
2024/01/03 09:32:36;;;;;;;;;;;;;;;15.65;63.90;96714.36;67517;1282;1016144;-71
2024/01/03 09:35:39;;;;;;;;;;;;;;;15.75;63.68;96723.97;67509;1282;1017176;-66
2024/01/03 09:38:42;;;;;;;;;;;;;;;15.88;62.78;96725.17;67546;1282;1016458;-65
2024/01/03 09:41:44;;;;;;;;;;;;;;;15.83;62.60;96744.89;67537;1282;1016422;-71
2024/01/03 09:44:48;;;;;;;;;;;;;;;15.74;62.59;96754.94;67505;1282;1016345;-72
2024/01/03 09:47:51;;;;;;;;;;;;;;;15.76;63.16;96742.55;67517;1282;1016407;-71
2024/01/03 09:50:55;;;;;;;;;;;;;;;15.81;62.48;96737.88;67560;1282;1016137;-70
2024/01/03 09:53:59;;;;;;;;;;;;;;;16.09;62.00;96744.26;67529;1282;1016407;-71
2024/01/03 09:57:01;;;;;;;;;;;;;;;16.21;60.86;96746.60;67474;1282;1016509;-70
2024/01/03 10:00:04;;;;;;;;;;;;;;;16.26;60.57;96744.20;67547;1282;1016475;-71
2024/01/03 10:03:27;;;;;;;;;;;;;;;16.26;59.94;96749.81;67481;1282;1018091;-70
2024/01/03 10:06:30;;;;;;;;;;;;;;;16.45;59.40;96746.22;67544;1282;1016763;-67
2024/01/03 10:09:33;;;;;;;;;;;;;;;16.45;58.33;96750.79;67530;1282;1016252;-71
2024/01/03 10:12:36;;;;;;;;;;;;;;;16.42;58.44;96749.20;67560;1282;1016364;-71
2024/01/03 10:15:39;;;;;;;;;;;;;;;16.51;57.79;96752.05;67579;1282;1016367;-71
2024/01/03 10:18:41;;;;;;;;;;;;;;;16.67;57.70;96747.39;67521;1282;1016430;-71
2024/01/03 10:21:44;;;;;;;;;;;;;;;16.79;56.91;96756.88;67537;1282;1016255;-72
2024/01/03 10:24:47;;;;;;;;;;;;;;;16.92;56.37;96753.23;67519;1282;1016460;-71
2024/01/03 10:27:49;;;;;;;;;;;;;;;17.03;55.94;96757.21;67515;1282;1016112;-67
2024/01/03 10:30:52;;;;;;;;;;;;;;;16.81;55.56;96758.66;67544;1282;1016417;-71
2024/01/03 10:33:55;;;;;;;;;;;;;;;16.89;55.30;96748.96;67533;1282;1016474;-71
2024/01/03 10:36:58;;;;;;;;;;;;;;;17.01;54.95;96748.46;67514;1282;1016739;-71
2024/01/03 10:40:02;;;;;;;;;;;;;;;16.96;55.05;96756.40;67571;1282;1016462;-68
2024/01/03 10:43:05;;;;;;;;;;;;;;;16.87;54.99;96756.30;67558;1282;1016411;-71
2024/01/03 10:46:07;;;;;;;;;;;;;;;16.88;55.53;96747.45;67528;1282;1016476;-71
2024/01/03 10:49:10;;;;;;;;;;;;;;;16.91;55.36;96750.66;67511;1282;1016389;-66
2024/01/03 10:52:13;;;;;;;;;;;;;;;16.94;55.17;96750.84;67551;1282;1016473;-71
2024/01/03 10:55:15;;;;;;;;;;;;;;;16.99;55.20;96750.52;67562;1282;1019841;-71
2024/01/03 10:58:18;;;;;;;;;;;;;;;17.09;54.16;96749.91;67493;1282;1016423;-71
2024/01/03 11:01:21;;;;;;;;;;;;;;;17.17;54.01;96743.15;67545;1282;1016384;-68
2024/01/03 11:04:23;;;;;;;;;;;;;;;17.18;53.98;96734.24;67566;1282;1016187;-71
2024/01/03 11:07:28;;;;;;;;;;;;;;;17.27;54.13;96744.73;67505;1282;1016518;-71
2024/01/03 11:10:30;;;;;;;;;;;;;;;17.29;53.42;96747.70;67521;1282;1018788;-69
2024/01/03 11:13:33;;;;;;;;;;;;;;;17.28;53.79;96738.23;67546;1282;1016119;-71
2024/01/03 11:16:37;;;;;;;;;;;;;;;17.32;53.92;96745.00;67560;1282;1016345;-70
2024/01/03 11:19:40;;;;;;;;;;;;;;;17.71;53.73;96728.61;67522;1282;1017613;-71
2024/01/03 11:22:43;;;;;;;;;;;;;;;17.90;52.70;96729.13;67541;1282;1016488;-70
2024/01/03 11:25:45;;;;;;;;;;;;;;;18.06;51.89;96724.13;67500;1282;1016543;-70
2024/01/03 11:28:48;;;;;;;;;;;;;;;18.08;52.10;96725.42;67545;1282;1016063;-71
2024/01/03 11:31:51;;;;;;;;;;;;;;;17.97;51.39;96725.97;67540;1282;1016165;-68
2024/01/03 11:34:53;;;;;;;;;;;;;;;18.02;51.35;96737.38;67481;1282;1016024;-71
2024/01/03 11:37:56;;;;;;;;;;;;;;;17.91;51.69;96733.56;67564;1282;1016488;-68
2024/01/03 11:40:59;;;;;;;;;;;;;;;17.83;51.56;96735.83;67533;1282;1016367;-70
2024/01/03 11:44:01;;;;;;;;;;;;;;;17.64;52.14;96747.73;67522;1282;1016425;-69
2024/01/03 11:47:04;;;;;;;;;;;;;;;17.57;52.56;96744.67;67568;1282;1016490;-69
2024/01/03 11:50:08;;;;;;;;;;;;;;;17.41;52.37;96750.54;67577;1282;1016862;-70
2024/01/03 11:53:11;;;;;;;;;;;;;;;17.45;51.92;96740.29;67525;1282;1018161;-70
2024/01/03 11:56:14;;;;;;;;;;;;;;;17.44;52.32;96743.53;67566;1282;1016181;-69
2024/01/03 11:59:17;;;;;;;;;;;;;;;17.46;53.19;96747.25;67542;1282;1016413;-71
2024/01/03 12:02:20;;;;;;;;;;;;;;;17.33;53.80;96735.75;67544;1282;1016285;-72
2024/01/03 12:05:23;;;;;;;;;;;;;;;17.39;54.03;96736.02;67551;1282;1016444;-70
2024/01/03 12:08:26;;;;;;;;;;;;;;;17.57;53.74;96726.61;67506;1282;1016225;-69
2024/01/03 12:11:28;;;;;;;;;;;;;;;17.51;53.61;96727.41;67518;1282;1016779;-71
2024/01/03 12:14:31;;;;;;;;;;;;;;;17.58;53.23;96727.44;67548;1282;1016265;-68
2024/01/03 12:17:34;;;;;;;;;;;;;;;17.63;52.93;96733.91;67495;1282;1016423;-69
2024/01/03 12:20:37;;;;;;;;;;;;;;;17.57;52.28;96738.98;67566;1282;1016431;-71
2024/01/03 12:23:40;;;;;;;;;;;;;;;17.46;52.29;96736.42;67523;1282;1016410;-69
2024/01/03 12:26:42;;;;;;;;;;;;;;;17.41;52.42;96740.45;67554;1282;1017161;-71
2024/01/03 12:29:45;;;;;;;;;;;;;;;17.32;51.88;96752.13;67490;1282;1016435;-71
2024/01/03 12:32:48;;;;;;;;;;;;;;;17.27;51.93;96740.17;67541;1282;1016089;-71
2024/01/03 12:35:51;;;;;;;;;;;;;;;17.38;51.65;96749.83;67553;1282;1016102;-71
2024/01/03 12:38:55;;;;;;;;;;;;;;;17.33;51.53;96752.74;67555;1282;1016518;-71
2024/01/03 12:41:57;;;;;;;;;;;;;;;17.30;51.82;96765.64;67556;1282;1016402;-60
2024/01/03 12:45:00;;;;;;;;;;;;;;;17.22;52.06;96760.89;67523;1282;1016308;-71
2024/01/03 12:48:03;;;;;;;;;;;;;;;17.31;52.21;96756.69;67519;1282;1016497;-67
2024/01/03 12:51:06;;;;;;;;;;;;;;;17.42;51.71;96761.10;67562;1282;1016422;-70
2024/01/03 12:54:08;;;;;;;;;;;;;;;17.35;51.71;96760.89;67539;1282;1016047;-66
2024/01/03 12:57:11;;;;;;;;;;;;;;;17.40;51.83;96758.70;67522;1282;1016242;-71
2024/01/03 13:00:14;;;;;;;;;;;;;;;17.40;51.49;96753.02;67560;1282;1016671;-71
2024/01/03 13:03:17;;;;;;;;;;;;;;;17.55;51.31;96755.98;67575;1282;1016956;-71
2024/01/03 13:06:20;;;;;;;;;;;;;;;17.64;51.19;96743.98;67583;1282;1018883;-71
2024/01/03 13:09:23;;;;;;;;;;;;;;;17.70;50.81;96755.41;67543;1282;1016089;-67
2024/01/03 13:12:28;;;;;;;;;;;;;;;17.69;50.29;96759.27;67573;1282;1016444;-70
2024/01/03 13:15:32;;;;;;;;;;;;;;;17.65;50.61;96746.72;67548;1282;1016253;-71
2024/01/03 13:18:36;;;;;;;;;;;;;;;17.56;50.37;96754.33;67564;1282;1016396;-71
2024/01/03 13:21:39;;;;;;;;;;;;;;;17.50;50.87;96745.52;67550;1282;1016438;-69
2024/01/03 13:24:42;;;;;;;;;;;;;;;17.44;51.08;96748.21;67574;1282;1016520;-71
2024/01/03 13:27:46;;;;;;;;;;;;;;;17.27;51.74;96739.84;67587;1282;1016294;-70
2024/01/03 13:30:48;;;;;;;;;;;;;;;17.19;51.80;96740.09;67553;1282;1016550;-71
2024/01/03 13:33:51;;;;;;;;;;;;;;;17.16;51.92;96741.52;67525;1282;1016348;-67
2024/01/03 13:36:54;;;;;;;;;;;;;;;17.21;51.15;96746.17;67582;1282;1016492;-70
2024/01/03 13:39:57;;;;;;;;;;;;;;;17.24;50.96;96755.13;67521;1282;1016170;-71
2024/01/03 13:42:59;;;;;;;;;;;;;;;17.26;50.68;96762.50;67524;1282;1016427;-71
2024/01/03 13:46:03;;;;;;;;;;;;;;;17.34;50.43;96756.45;67603;1282;1016414;-71
2024/01/03 13:49:08;;;;;;;;;;;;;;;17.32;50.57;96757.10;67563;1282;1018199;-71
2024/01/03 13:52:11;;;;;;;;;;;;;;;17.25;50.66;96758.00;67570;1282;1016448;-71
2024/01/03 13:55:14;;;;;;;;;;;;;;;17.19;51.39;96757.44;67539;1282;1015644;-67
2024/01/03 13:58:16;;;;;;;;;;;;;;;17.03;52.05;96761.82;67562;1282;1016267;-71
2024/01/03 14:01:20;;;;;;;;;;;;;;;17.04;52.43;96757.98;67568;1282;1016316;-71
2024/01/03 14:04:23;;;;;;;;;;;;;;;17.11;52.46;96753.79;67560;1282;1016583;-70
2024/01/03 14:07:26;;;;;;;;;;;;;;;17.24;51.97;96752.13;67494;1282;1016544;-71
2024/01/03 14:10:30;;;;;;;;;;;;;;;17.29;51.38;96753.73;67576;1282;1016328;-72
2024/01/03 14:13:33;;;;;;;;;;;;;;;17.20;51.33;96754.97;67572;1282;1015973;-68
2024/01/03 14:16:35;;;;;;;;;;;;;;;17.03;51.88;96757.16;67583;1282;1016520;-71
2024/01/03 14:19:38;;;;;;;;;;;;;;;16.93;52.09;96757.16;67530;1282;1016222;-71
2024/01/03 14:22:42;;;;;;;;;;;;;;;17.02;51.70;96759.64;67568;1282;1016949;-71
2024/01/03 14:25:45;;;;;;;;;;;;;;;17.12;51.33;96757.72;67586;1282;1016513;-71
2024/01/03 14:28:48;;;;;;;;;;;;;;;16.99;51.28;96759.52;67548;1282;1016201;-72
2024/01/03 14:31:51;;;;;;;;;;;;;;;16.91;51.38;96760.77;67568;1282;1016430;-71
2024/01/03 14:34:53;;;;;;;;;;;;;;;16.84;51.50;96767.52;67573;1282;1016422;-69
2024/01/03 14:37:56;;;;;;;;;;;;;;;16.94;50.84;96766.78;67532;1282;1016245;-71
2024/01/03 14:40:59;;;;;;;;;;;;;;;16.86;50.98;96758.09;67557;1282;1016604;-69
2024/01/03 14:44:04;;;;;;;;;;;;;;;16.92;50.76;96765.91;67578;1282;1016345;-67
2024/01/03 14:47:07;;;;;;;;;;;;;;;16.96;50.50;96759.08;67585;1282;1016398;-71
2024/01/03 14:50:10;;;;;;;;;;;;;;;16.77;50.96;96757.98;67546;1282;1016175;-71
2024/01/03 14:53:13;;;;;;;;;;;;;;;16.72;51.05;96758.05;67585;1282;1016332;-69
2024/01/03 14:56:16;;;;;;;;;;;;;;;16.63;51.35;96760.82;67526;1282;1016498;-71
2024/01/03 14:59:18;;;;;;;;;;;;;;;16.74;51.07;96759.50;67526;1282;1016479;-71
2024/01/03 15:02:22;;;;;;;;;;;;;;;16.68;51.19;96762.42;67573;1282;1016464;-71
2024/01/03 15:05:25;;;;;;;;;;;;;;;16.53;51.51;96757.95;67524;1282;1016535;-68
2024/01/03 15:08:27;;;;;;;;;;;;;;;16.46;51.78;96762.97;67590;1282;1016409;-71
2024/01/03 15:11:30;;;;;;;;;;;;;;;16.28;52.25;96764.91;67558;1282;1016136;-72
2024/01/03 15:14:35;;;;;;;;;;;;;;;16.18;52.61;96773.54;67538;1282;1016392;-68
2024/01/03 15:17:38;;;;;;;;;;;;;;;16.19;52.67;96769.83;67562;1282;1016400;-71
2024/01/03 15:20:40;;;;;;;;;;;;;;;16.14;52.80;96775.32;67546;1282;1019226;-71
2024/01/03 15:23:43;;;;;;;;;;;;;;;16.14;52.91;96778.23;67565;1282;1017019;-69
2024/01/03 15:26:46;;;;;;;;;;;;;;;16.10;52.95;96773.37;67590;1282;1016329;-69
2024/01/03 15:29:48;;;;;;;;;;;;;;;16.15;52.91;96775.38;67503;1282;1016493;-72
2024/01/03 15:32:51;;;;;;;;;;;;;;;16.12;53.04;96776.16;67543;1282;1016811;-71
2024/01/03 15:35:54;;;;;;;;;;;;;;;15.98;53.69;96779.11;67590;1282;1016497;-71
2024/01/03 15:38:57;;;;;;;;;;;;;;;16.15;53.36;96773.29;67531;1282;1016269;-70
2024/01/03 15:41:59;;;;;;;;;;;;;;;16.23;53.17;96777.36;67585;1282;1016202;-72
2024/01/03 15:45:02;;;;;;;;;;;;;;;16.36;52.84;96777.83;67562;1282;1016505;-71
2024/01/03 15:48:05;;;;;;;;;;;;;;;16.39;52.58;96777.03;67534;1282;1016400;-69
2024/01/03 15:51:08;;;;;;;;;;;;;;;16.34;52.45;96774.34;67581;1282;1016558;-71
2024/01/03 15:54:10;;;;;;;;;;;;;;;16.28;52.48;96774.11;67501;1282;1016449;-72
2024/01/03 15:57:13;;;;;;;;;;;;;;;16.28;52.36;96777.52;67556;1282;1016456;-70